EW1032 Weather Reports


Display with metric or nautical units.
time (UTC)temp
F
wind
direction
speed
MPH
gust
MPH
rain 1hr
in
rain 24hr
in
rain mn
in
humidity
%
barometer
mb
20190322114537 39 302 6.0 19.0 0.04 0.87 0.25 90 996.0
20190322113030 40 360 7.0 18.0 0.03 0.86 0.24 90 995.8
20190322111549 41 336 4.0 11.0 0.02 0.85 0.23 91 995.6
20190322110038 41 343 4.0 13.0 0.01 0.84 0.22 91 995.3
20190322104612 41 355 6.0 16.0 0.01 0.84 0.21 91 995.0
20190322103102 41 330 6.0 19.0 0.01 0.84 0.21 92 994.8
20190322101530 41 5 7.0 21.0 0.01 0.84 0.21 92 994.5
20190322100022 41 317 7.0 19.0 0.03 0.84 0.21 92 994.3
20190322094534 41 333 8.0 19.0 0.03 0.84 0.20 92 994.3
20190322093024 41 344 9.0 20.0 0.05 0.84 0.20 92 993.9
20190322091540 42 355 7.0 26.0 0.08 0.83 0.19 93 993.7
20190322090011 43 331 7.0 14.0 0.10 0.82 0.18 93 993.5
20190322084512 43 5 3.0 9.0 0.11 0.83 0.17 93 993.5
20190322083004 43 335 6.0 15.0 0.09 0.81 0.15 93 993.5
20190322081712 44 330 5.0 8.0 0.05 0.77 0.11 94 993.5
20190322080150 44 360 1.0 6.0 0.02 0.74 0.08 94 993.5
20190322074706 44 10 2.0 5.0 0.00 0.73 0.06 94 993.6
20190322073142 44 17 2.0 6.0 0.01 0.73 0.06 94 993.8
20190322071622 44 34 3.0 7.0 0.01 0.73 0.06 94 994.0
20190322070158 44 33 5.0 11.0 0.01 0.73 0.06 94 994.2
20190322064653 44 22 4.0 9.0 0.01 0.73 0.06 94 994.4
20190322063133 44 12 5.0 9.0 0.00 0.72 0.05 94 994.7
20190322061630 44 36 5.0 9.0 0.00 0.72 0.05 94 994.8
20190322060117 44 47 7.0 11.0 0.00 0.72 0.05 94 994.7
20190322054611 44 57 6.0 12.0 0.01 0.72 0.05 94 994.8
20190322053115 44 51 6.0 10.0 0.01 0.72 0.05 93 995.1
20190322051549 45 36 6.0 13.0 0.04 0.72 0.05 93 995.4
20190322050056 45 49 6.0 14.0 0.05 0.72 0.05 94 995.8
20190322044600 45 53 6.0 14.0 0.07 0.71 0.04 93 996.2
20190322043052 45 55 7.0 12.0 0.08 0.71 0.04 93 996.7
20190322041539 45 53 6.0 11.0 0.05 0.68 0.01 93 997.1
20190322040109 46 59 7.0 15.0 0.04 0.67 0.00 93 997.4
20190322034546 46 46 9.0 15.0 0.01 0.64 0.64 93 997.9
20190322033033 46 29 6.0 11.0 0.00 0.63 0.63 93 998.3
20190322031517 46 49 6.0 11.0 0.00 0.63 0.63 93 998.7
20190322030039 46 68 6.0 12.0 0.00 0.63 0.63 93 999.0
20190322024510 47 53 5.0 10.0 0.04 0.63 0.63 93 999.6
20190322023010 47 48 5.0 11.0 0.09 0.63 0.63 93 1000.3
20190322021504 47 68 7.0 10.0 0.13 0.63 0.63 93 1000.8
20190322020242 47 61 5.0 9.0 0.14 0.63 0.63 92 1001.4
20190322014717 48 78 3.0 9.0 0.10 0.59 0.59 92 1002.2
20190322013159 48 92 4.0 10.0 0.05 0.54 0.54 92 1002.9
20190322012008 48 68 3.0 11.0 0.01 0.50 0.50 91 1002.6
20190322010118 48 70 4.0 10.0 0.00 0.49 0.49 92 1002.8
20190322004634 48 60 4.0 11.0 0.00 0.49 0.49 92 1003.2
20190322003214 48 90 3.0 8.0 0.00 0.49 0.49 92 1003.3
20190322001706 48 108 5.0 12.0 0.02 0.49 0.49 92 1003.7
20190322000130 48 53 3.0 8.0 0.02 0.49 0.49 92 1003.9
20190321234627 48 162 3.0 9.0 0.02 0.49 0.49 91 1004.2
20190321233116 49 84 2.0 12.0 0.02 0.49 0.49 91 1004.6
20190321231608 49 63 4.0 10.0 0.00 0.47 0.47 91 1004.6
20190321230113 49 44 3.0 7.0 0.00 0.47 0.47 90 1005.3
20190321224639 49 69 4.0 11.0 0.00 0.47 0.47 90 1005.6
20190321223115 49 91 1.0 15.0 0.00 0.47 0.47 90 1005.8
20190321221639 49 72 2.0 10.0 0.00 0.47 0.47 91 1005.9
20190321220053 49 133 2.0 13.0 0.01 0.47 0.47 91 1006.0
20190321214557 49 77 2.0 9.0 0.01 0.47 0.47 91 1006.4
20190321213104 49 91 1.0 8.0 0.02 0.47 0.47 91 1006.5
20190321211533 49 122 1.0 7.0 0.03 0.47 0.47 91 1007.2
20190321210029 50 123 1.0 9.0 0.03 0.46 0.46 91 1007.6
20190321204549 50 130 1.0 9.0 0.03 0.46 0.46 91 1007.6
20190321203059 50 168 3.0 11.0 0.02 0.45 0.45 92 1007.9
20190321201529 50 136 2.0 13.0 0.01 0.44 0.44 92 1008.6
20190321200036 50 70 1.0 9.0 0.00 0.43 0.43 92 1008.8
20190321194516 50 282 0.0 7.0 0.01 0.43 0.43 92 1009.4
20190321193016 50 141 2.0 7.0 0.01 0.43 0.43 93 1009.8
20190321191504 50 71 3.0 11.0 0.02 0.43 0.43 93 1010.3
20190321190004 50 146 1.0 8.0 0.02 0.43 0.43 93 1010.6
20190321184757 49 164 2.0 8.0 0.03 0.42 0.42 93 1010.7
20190321183228 49 80 1.0 6.0 0.04 0.42 0.42 93 1011.2
20190321181706 49 132 3.0 10.0 0.05 0.41 0.41 94 1011.8
20190321180154 49 84 1.0 5.0 0.06 0.41 0.41 93 1012.2
20190321174634 49 26 1.0 8.0 0.05 0.39 0.39 94 1012.7
20190321173135 49 94 0.0 6.0 0.05 0.38 0.38 94 1013.1
20190321171621 48 92 0.0 6.0 0.02 0.35 0.35 94 1013.5
20190321170133 48 91 0.0 6.0 0.04 0.35 0.35 93 1013.5
20190321164638 48 73 1.0 5.0 0.03 0.34 0.34 93 1013.5
20190321163140 47 73 1.0 5.0 0.03 0.33 0.33 93 1013.9
20190321161609 47 89 3.0 7.0 0.04 0.33 0.33 93 1014.1
20190321160051 47 48 1.0 6.0 0.02 0.31 0.31 93 1014.4
20190321154607 47 65 1.0 8.0 0.02 0.31 0.31 93 1014.7
20190321153039 47 55 3.0 6.0 0.01 0.28 0.28 93 1015.1
20190321151555 46 83 1.0 6.0 0.04 0.28 0.28 93 1015.4
20190321150052 46 85 1.0 4.0 0.07 0.28 0.28 93 1015.8
20190321144543 46 69 0.0 5.0 0.07 0.28 0.28 93 1016.1
20190321143028 45 67 0.0 4.0 0.08 0.28 0.28 93 1016.5
20190321141519 45 85 0.0 2.0 0.06 0.25 0.25 93 1016.8
20190321140048 45 68 0.0 5.0 0.06 0.22 0.22 93 1016.9
20190321134524 45 72 1.0 6.0 0.07 0.22 0.22 93 1016.8
20190321133014 45 107 1.0 6.0 0.06 0.20 0.20 93 1016.9
20190321131506 44 88 0.0 8.0 0.08 0.19 0.19 92 1017.1
20190321130003 44 84 0.0 5.0 0.09 0.16 0.16 92 1017.3
20190321124727 44 75 0.0 4.0 0.10 0.15 0.15 92 1017.6
20190321123137 44 90 1.0 3.0 0.09 0.14 0.14 92 1017.8
20190321121726 44 71 1.0 5.0 0.06 0.11 0.11 92 1018.1
20190321120148 44 80 0.0 7.0 0.02 0.07 0.07 92 1018.2